Youngstown, Indiana
Current Conditions -  °F | °C
As of 8:53 PM on Friday 19 Dec 2014 (Local Time) from KHUF Reporting Station
Overcast Overcast  
Wind Chill: 25°   Ceiling: 2700
Heat Index: 31°   Visibility: 10mi
Dew Point: 24°   Wind: 6mph
Humidity: 76%   Direction: 90°E
Pressure: 30.28"   Gusts: NA
Location:  39.3587°N, 87.4056°W
Report Text: KHUF 200153Z 09005KT 10SM OVC027 M01/M04 A3028 RMK AO2 SLP260 T10061044
Loading
Personal Weather Stations






























Interactive Weather Map New forecast layout! Learn more

10-Day Weather Forecast

Advertisements
Track Severe Weather on mobile